createdAt,value
2022-12-18T00:00:24.446Z,22.96
2022-12-18T00:02:58.213Z,22.96
2022-12-18T00:05:52.330Z,23.91
2022-12-18T00:08:20.226Z,23.93
2022-12-18T00:10:51.148Z,24.45
2022-12-18T00:13:21.098Z,24.61
2022-12-18T00:15:51.962Z,24.84
2022-12-18T00:18:26.315Z,23.68
2022-12-18T00:21:15.658Z,23.59
2022-12-18T00:23:45.590Z,21.06
2022-12-18T00:26:17.330Z,21.69
2022-12-18T00:28:48.127Z,22.34
2022-12-18T00:31:24.633Z,21.46
2022-12-18T00:33:56.195Z,23.10
2022-12-18T00:36:50.413Z,23.70
2022-12-18T00:39:15.619Z,22.57
2022-12-18T00:41:46.268Z,23.15
2022-12-18T00:44:18.133Z,22.37
2022-12-18T00:47:02.993Z,23.26
2022-12-18T00:49:30.965Z,24.98
2022-12-18T00:52:06.816Z,24.32
2022-12-18T00:54:36.670Z,24.04
2022-12-18T00:57:04.873Z,24.07
2022-12-18T00:59:35.099Z,24.04
2022-12-18T01:02:05.168Z,24.52
2022-12-18T01:04:37.618Z,22.78
2022-12-18T01:07:06.796Z,23.63
2022-12-18T01:09:36.372Z,23.61
2022-12-18T01:12:08.768Z,23.91
2022-12-18T01:14:38.266Z,23.02
2022-12-18T01:17:07.833Z,23.70
2022-12-18T01:19:37.282Z,24.22
2022-12-18T01:22:06.579Z,24.07
2022-12-18T01:24:34.848Z,22.91
2022-12-18T01:27:03.343Z,23.73
2022-12-18T01:29:33.584Z,23.81
2022-12-18T01:32:02.997Z,23.20
2022-12-18T01:34:38.882Z,23.88
2022-12-18T01:37:09.532Z,24.22
2022-12-18T01:39:39.341Z,24.54
2022-12-18T01:42:13.559Z,24.12
2022-12-18T01:45:00.362Z,24.41
2022-12-18T01:47:39.684Z,24.44
2022-12-18T01:50:14.151Z,25.47
2022-12-18T01:52:46.066Z,24.50
2022-12-18T01:55:19.700Z,24.62
2022-12-18T01:57:51.182Z,24.33
2022-12-18T02:00:23.428Z,24.71
2022-12-18T02:02:51.790Z,24.28
2022-12-18T02:05:38.137Z,24.62
2022-12-18T02:08:15.380Z,24.46
2022-12-18T02:10:54.630Z,23.71
2022-12-18T02:13:42.057Z,23.33
2022-12-18T02:16:20.910Z,23.65
2022-12-18T02:18:57.014Z,23.97
2022-12-18T02:21:40.662Z,24.38
2022-12-18T02:24:25.183Z,24.71
2022-12-18T02:27:01.159Z,24.06
2022-12-18T02:29:41.732Z,25.46
2022-12-18T02:32:17.365Z,23.96
2022-12-18T02:34:48.006Z,23.40
2022-12-18T02:37:21.803Z,24.57
2022-12-18T02:39:52.543Z,23.52
2022-12-18T02:42:25.515Z,24.67
2022-12-18T02:45:03.252Z,23.93
2022-12-18T02:47:39.066Z,24.94
2022-12-18T02:50:24.653Z,24.77
2022-12-18T02:53:07.465Z,23.66
2022-12-18T02:55:53.355Z,23.51
2022-12-18T02:58:31.789Z,23.70
2022-12-18T03:01:11.142Z,24.70
2022-12-18T03:03:45.589Z,24.23
2022-12-18T03:06:25.179Z,24.51
2022-12-18T03:09:00.297Z,23.49
2022-12-18T03:11:40.369Z,23.76
2022-12-18T03:14:16.352Z,23.54
2022-12-18T03:16:55.506Z,24.07
2022-12-18T03:19:30.153Z,24.36
2022-12-18T03:22:02.273Z,24.58
2022-12-18T03:24:34.267Z,24.61
2022-12-18T03:27:12.420Z,23.78
2022-12-18T03:29:48.136Z,23.96
2022-12-18T03:32:25.910Z,24.24
2022-12-18T03:35:01.953Z,24.60
2022-12-18T03:37:30.277Z,23.35
2022-12-18T03:39:58.627Z,23.75
2022-12-18T03:42:33.808Z,23.55
2022-12-18T03:45:14.496Z,24.19
2022-12-18T03:48:01.113Z,23.83
2022-12-18T03:50:41.553Z,23.68
2022-12-18T03:53:31.131Z,24.06
2022-12-18T03:56:07.260Z,23.93
2022-12-18T03:58:45.473Z,24.52
2022-12-18T04:01:20.947Z,24.82
2022-12-18T04:03:52.401Z,24.28
2022-12-18T04:06:23.094Z,24.89
2022-12-18T04:08:54.715Z,23.83
2022-12-18T04:11:22.638Z,24.37
2022-12-18T04:13:50.766Z,22.48
2022-12-18T04:16:22.906Z,23.65
2022-12-18T04:18:52.338Z,25.54
2022-12-18T04:21:21.640Z,32.45
2022-12-18T04:23:50.976Z,35.56
2022-12-18T04:26:19.224Z,31.54
2022-12-18T04:28:49.802Z,28.45
2022-12-18T04:31:21.855Z,28.45
2022-12-18T04:33:53.107Z,39.15
2022-12-18T04:36:21.111Z,35.98
2022-12-18T04:38:52.170Z,39.89
2022-12-18T04:41:22.261Z,26.53
2022-12-18T04:43:50.360Z,24.43
2022-12-18T04:46:19.849Z,25.18
2022-12-18T04:48:47.868Z,24.55
2022-12-18T04:51:19.824Z,25.34
2022-12-18T04:53:51.147Z,24.24
2022-12-18T04:56:21.471Z,24.46
2022-12-18T04:58:50.545Z,24.43
2022-12-18T05:01:27.088Z,25.37
2022-12-18T05:04:02.392Z,24.56
2022-12-18T05:06:33.616Z,25.27
2022-12-18T05:09:05.295Z,23.99
2022-12-18T05:11:37.958Z,24.75
2022-12-18T05:14:14.551Z,24.23
2022-12-18T05:16:50.949Z,24.24
2022-12-18T05:19:19.255Z,24.94
2022-12-18T05:21:47.193Z,24.49
2022-12-18T05:24:17.260Z,24.45
2022-12-18T05:26:56.526Z,23.71
2022-12-18T05:29:24.677Z,23.89
2022-12-18T05:31:57.923Z,23.35
2022-12-18T05:34:27.042Z,23.94
2022-12-18T05:36:56.517Z,24.54
2022-12-18T05:39:24.388Z,40.80
2022-12-18T05:41:52.395Z,52.14
2022-12-18T05:44:22.622Z,24.04
2022-12-18T05:46:50.750Z,23.43
2022-12-18T05:49:29.212Z,24.56
2022-12-18T05:51:58.400Z,27.57
2022-12-18T05:54:30.045Z,29.45
2022-12-18T05:57:05.009Z,28.21
2022-12-18T05:59:37.418Z,31.45
2022-12-18T06:02:07.286Z,29.86
2022-12-18T06:04:48.955Z,27.39
2022-12-18T06:07:17.054Z,30.67
2022-12-18T06:09:45.018Z,34.80
2022-12-18T06:12:16.327Z,37.62
2022-12-18T06:14:44.683Z,36.21
2022-12-18T06:17:15.149Z,29.54
2022-12-18T06:19:45.807Z,28.01
2022-12-18T06:22:16.888Z,26.39
2022-12-18T06:24:44.792Z,27.41
2022-12-18T06:27:13.817Z,25.15
2022-12-18T06:29:41.892Z,24.21
2022-12-18T06:32:09.869Z,24.26
2022-12-18T06:34:41.456Z,25.37
2022-12-18T06:37:10.837Z,24.36
2022-12-18T06:39:42.829Z,25.55
2022-12-18T06:42:10.776Z,24.14
2022-12-18T06:44:40.275Z,27.15
2022-12-18T06:47:08.202Z,24.56
2022-12-18T06:49:36.147Z,23.32
2022-12-18T06:52:04.255Z,23.44
2022-12-18T06:54:33.728Z,22.83
2022-12-18T06:57:01.674Z,20.82
2022-12-18T06:59:29.590Z,20.76
2022-12-18T07:01:59.650Z,21.39
2022-12-18T07:04:43.504Z,21.67
2022-12-18T07:07:13.194Z,21.20
2022-12-18T07:09:42.684Z,22.15
2022-12-18T07:12:11.771Z,20.46
2022-12-18T07:14:39.798Z,20.47
2022-12-18T07:17:09.615Z,21.39
2022-12-18T07:19:42.018Z,20.43
2022-12-18T07:22:10.122Z,21.49
2022-12-18T07:24:38.066Z,21.14
2022-12-18T07:27:07.614Z,20.12
2022-12-18T07:29:37.679Z,20.83
2022-12-18T07:32:06.375Z,20.87
2022-12-18T07:34:34.296Z,21.56
2022-12-18T07:37:04.203Z,20.68
2022-12-18T07:39:37.763Z,21.30
2022-12-18T07:42:09.989Z,21.01
2022-12-18T07:44:37.958Z,20.66
2022-12-18T07:47:10.471Z,21.12
2022-12-18T07:49:42.476Z,21.09
2022-12-18T07:52:10.969Z,20.22
2022-12-18T07:54:42.671Z,20.62
2022-12-18T07:57:33.995Z,20.18
2022-12-18T08:00:01.516Z,18.21
2022-12-18T08:02:31.907Z,18.02
2022-12-18T08:04:59.939Z,19.37
2022-12-18T08:07:27.998Z,19.91
2022-12-18T08:09:55.980Z,18.30
2022-12-18T08:12:25.587Z,18.79
2022-12-18T08:14:53.616Z,18.24
2022-12-18T08:17:21.675Z,17.58
2022-12-18T08:19:49.555Z,18.66
2022-12-18T08:22:23.588Z,19.13
2022-12-18T08:24:51.531Z,18.94
2022-12-18T08:27:34.909Z,20.13
2022-12-18T08:30:04.948Z,20.59
2022-12-18T08:32:34.428Z,19.47
2022-12-18T08:35:02.412Z,19.93
2022-12-18T08:37:30.347Z,20.00
2022-12-18T08:39:58.319Z,19.93
2022-12-18T08:42:26.333Z,19.76
2022-12-18T08:44:54.358Z,20.98
2022-12-18T08:47:23.719Z,21.73
2022-12-18T08:49:52.201Z,21.46
2022-12-18T08:52:21.935Z,25.39
2022-12-18T08:54:49.757Z,23.69
2022-12-18T08:57:18.887Z,19.34
2022-12-18T08:59:51.755Z,18.94
2022-12-18T09:02:20.119Z,18.00
2022-12-18T09:05:01.207Z,18.69
2022-12-18T09:07:31.805Z,19.20
2022-12-18T09:10:00.950Z,19.65
2022-12-18T09:12:31.315Z,19.94
2022-12-18T09:14:59.288Z,20.86
2022-12-18T09:17:27.315Z,20.95
2022-12-18T09:19:57.923Z,22.17
2022-12-18T09:22:40.496Z,24.74
2022-12-18T09:25:16.138Z,22.79
2022-12-18T09:30:51.039Z,18.99
2022-12-18T09:33:23.092Z,19.05
2022-12-18T09:36:18.588Z,22.44
2022-12-18T09:38:45.100Z,19.52
2022-12-18T09:41:37.085Z,19.22
2022-12-18T09:47:19.642Z,19.33
2022-12-18T09:50:10.540Z,18.99
2022-12-18T09:53:03.239Z,17.37
2022-12-18T09:55:47.476Z,17.52
2022-12-18T09:58:46.512Z,16.99
2022-12-18T10:04:23.536Z,16.94
2022-12-18T10:07:07.254Z,18.86
2022-12-18T10:09:48.151Z,17.37
2022-12-18T10:12:31.340Z,16.91
2022-12-18T10:15:14.869Z,17.25
2022-12-18T10:17:58.040Z,17.27
2022-12-18T10:20:34.927Z,17.18
2022-12-18T10:23:19.900Z,17.05
2022-12-18T10:25:58.114Z,17.68
2022-12-18T10:28:33.562Z,17.42
2022-12-18T10:31:06.134Z,18.89
2022-12-18T10:36:28.793Z,18.56
2022-12-18T10:39:32.393Z,19.43
2022-12-18T10:42:16.968Z,18.29
2022-12-18T10:44:47.741Z,17.52
2022-12-18T10:47:28.381Z,18.13
2022-12-18T10:50:01.001Z,18.86
2022-12-18T10:52:30.410Z,19.88
2022-12-18T10:55:00.895Z,20.62
2022-12-18T10:57:35.721Z,19.04
2022-12-18T11:00:24.294Z,19.34
2022-12-18T11:02:54.198Z,19.50
2022-12-18T11:05:32.967Z,20.27
2022-12-18T11:08:03.705Z,18.53
2022-12-18T11:10:41.542Z,19.19
2022-12-18T11:14:22.003Z,19.10
2022-12-18T11:17:24.415Z,18.00
2022-12-18T11:19:34.881Z,16.69
2022-12-18T11:22:20.099Z,17.09
2022-12-18T11:27:53.729Z,17.55
2022-12-18T11:30:25.225Z,18.47
2022-12-18T11:33:01.230Z,18.11
2022-12-18T11:35:48.729Z,18.12
2022-12-18T11:38:28.426Z,17.37
2022-12-18T11:41:06.342Z,17.62
2022-12-18T11:43:53.589Z,17.97
2022-12-18T11:46:43.443Z,19.38
2022-12-18T11:50:09.574Z,25.07
2022-12-18T11:52:25.104Z,18.72
2022-12-18T11:59:02.965Z,17.07
2022-12-18T12:01:27.759Z,17.77
2022-12-18T12:04:30.018Z,17.18
2022-12-18T12:07:19.731Z,17.16
2022-12-18T12:10:06.720Z,17.43
2022-12-18T12:19:40.213Z,16.57
2022-12-18T12:22:46.019Z,16.63
2022-12-18T12:25:42.797Z,17.43
2022-12-18T12:28:38.471Z,16.47
2022-12-18T12:31:33.822Z,15.83
2022-12-18T12:37:29.626Z,16.49
2022-12-18T12:40:41.017Z,15.93
2022-12-18T12:43:11.932Z,16.67
2022-12-18T12:46:37.663Z,17.26
2022-12-18T12:48:48.279Z,16.76
2022-12-18T12:51:29.672Z,15.89
2022-12-18T12:54:04.654Z,16.52
2022-12-18T12:56:48.546Z,16.31
2022-12-18T13:02:35.165Z,16.05
2022-12-18T13:05:33.627Z,16.45
2022-12-18T13:08:07.221Z,16.16
2022-12-18T13:10:46.951Z,16.44
2022-12-18T13:16:12.011Z,16.73
2022-12-18T13:18:59.308Z,16.92
2022-12-18T13:21:30.862Z,17.45
2022-12-18T13:24:24.819Z,17.55
2022-12-18T13:26:57.453Z,16.85
2022-12-18T13:29:55.875Z,16.68
2022-12-18T13:32:31.511Z,16.97
2022-12-18T13:35:41.794Z,17.94
2022-12-18T13:38:59.671Z,17.08
2022-12-18T13:41:27.932Z,17.49
2022-12-18T13:44:15.025Z,17.82
2022-12-18T13:46:48.325Z,16.59
2022-12-18T13:49:24.764Z,16.15
2022-12-18T13:51:55.446Z,17.07
2022-12-18T13:54:41.819Z,17.31
2022-12-18T13:57:28.122Z,17.35
2022-12-18T14:00:00.183Z,16.77
2022-12-18T14:02:55.982Z,17.58
2022-12-18T14:05:25.008Z,17.60
2022-12-18T14:07:58.546Z,17.84
2022-12-18T14:10:45.493Z,18.77
2022-12-18T14:13:25.454Z,18.25
2022-12-18T14:15:55.322Z,18.32
2022-12-18T14:18:28.854Z,18.85
2022-12-18T14:21:14.535Z,18.38
2022-12-18T14:23:45.734Z,18.22
2022-12-18T14:26:30.990Z,18.97
2022-12-18T14:29:06.942Z,18.83
2022-12-18T14:31:38.570Z,18.63
2022-12-18T14:34:17.447Z,19.47
2022-12-18T14:36:56.030Z,18.64
2022-12-18T14:39:30.020Z,18.85
2022-12-18T14:41:58.000Z,19.58
2022-12-18T14:44:34.577Z,18.18
2022-12-18T14:47:21.607Z,18.84
2022-12-18T14:49:52.776Z,18.69
2022-12-18T14:52:42.768Z,18.65
2022-12-18T14:55:19.827Z,19.74
2022-12-18T14:57:57.717Z,18.59
2022-12-18T15:00:27.393Z,18.82
2022-12-18T15:03:12.660Z,18.15
2022-12-18T15:05:40.562Z,18.03
2022-12-18T15:08:30.834Z,17.81
2022-12-18T15:10:58.704Z,19.26
2022-12-18T15:13:26.632Z,18.67
2022-12-18T15:16:03.631Z,19.15
2022-12-18T15:18:42.266Z,18.77
2022-12-18T15:21:16.701Z,19.00
2022-12-18T15:23:51.948Z,20.63
2022-12-18T15:26:22.888Z,20.26
2022-12-18T15:28:55.797Z,21.58
2022-12-18T15:31:31.722Z,22.20
2022-12-18T15:34:14.284Z,22.68
2022-12-18T15:36:44.480Z,22.25
2022-12-18T15:39:15.911Z,22.69
2022-12-18T15:42:13.618Z,22.33
2022-12-18T15:44:38.346Z,21.88
2022-12-18T15:48:16.002Z,22.04
2022-12-18T15:51:09.612Z,22.33
2022-12-18T15:53:02.670Z,22.47
2022-12-18T15:55:33.976Z,21.34
2022-12-18T15:58:06.181Z,21.59
2022-12-18T16:00:41.025Z,21.60
2022-12-18T16:03:10.779Z,22.69
2022-12-18T16:05:40.835Z,22.34
2022-12-18T16:08:10.251Z,22.61
2022-12-18T16:10:40.158Z,22.16
2022-12-18T16:13:12.582Z,22.09
2022-12-18T16:15:44.570Z,23.79
2022-12-18T16:18:17.723Z,23.79
2022-12-18T16:21:02.651Z,25.23
2022-12-18T16:23:33.034Z,23.30
2022-12-18T16:26:02.318Z,22.90
2022-12-18T16:28:36.357Z,21.96
2022-12-18T16:31:04.256Z,20.67
2022-12-18T16:33:32.240Z,20.88
2022-12-18T16:36:04.478Z,21.09
2022-12-18T16:38:32.822Z,20.92
2022-12-18T16:41:00.668Z,21.40
2022-12-18T16:43:28.638Z,20.24
2022-12-18T16:45:59.980Z,22.37
2022-12-18T16:48:30.203Z,21.24
2022-12-18T16:51:08.275Z,21.17
2022-12-18T16:53:37.622Z,24.61
2022-12-18T16:56:06.356Z,30.36
2022-12-18T16:58:36.152Z,24.34
2022-12-18T17:01:08.275Z,22.43
2022-12-18T17:03:38.195Z,22.38
2022-12-18T17:06:08.730Z,21.50
2022-12-18T17:08:38.917Z,20.65
2022-12-18T17:11:08.958Z,20.16
2022-12-18T17:13:41.278Z,21.14
2022-12-18T17:16:11.411Z,22.05
2022-12-18T17:18:43.054Z,21.57
2022-12-18T17:21:19.578Z,20.97
2022-12-18T17:23:47.448Z,21.33
2022-12-18T17:26:23.936Z,20.39
2022-12-18T17:28:51.776Z,20.60
2022-12-18T17:31:22.256Z,19.94
2022-12-18T17:33:52.128Z,20.45
2022-12-18T17:36:23.522Z,20.27
2022-12-18T17:38:56.257Z,20.44
2022-12-18T17:41:27.548Z,20.44
2022-12-18T17:43:57.459Z,20.07
2022-12-18T17:46:41.408Z,19.79
2022-12-18T17:49:11.890Z,20.39
2022-12-18T17:51:43.437Z,20.88
2022-12-18T17:54:11.477Z,20.34
2022-12-18T17:56:40.854Z,20.11
2022-12-18T17:59:09.707Z,20.00
2022-12-18T18:01:44.456Z,19.85
2022-12-18T18:04:15.131Z,20.35
2022-12-18T18:06:54.371Z,20.64
2022-12-18T18:09:22.211Z,20.70
2022-12-18T18:11:49.930Z,21.90
2022-12-18T18:14:24.611Z,22.18
2022-12-18T18:16:55.699Z,21.79
2022-12-18T18:19:25.958Z,20.68
2022-12-18T18:21:55.167Z,20.26
2022-12-18T18:24:24.131Z,21.13
2022-12-18T18:27:02.812Z,20.04
2022-12-18T18:29:31.860Z,19.72
2022-12-18T18:31:59.831Z,20.06
2022-12-18T18:34:31.664Z,19.70
2022-12-18T18:37:10.252Z,21.22
2022-12-18T18:40:28.741Z,21.39
2022-12-18T18:42:29.940Z,21.84
2022-12-18T18:45:02.104Z,21.49
2022-12-18T18:50:28.948Z,21.79
2022-12-18T18:52:59.629Z,24.81
2022-12-18T18:55:27.477Z,24.53
2022-12-18T18:58:05.933Z,23.61
2022-12-18T19:00:34.638Z,22.46
2022-12-18T19:03:02.700Z,22.13
2022-12-18T19:05:32.070Z,22.71
2022-12-18T19:08:07.758Z,22.59
2022-12-18T19:10:41.656Z,20.90
2022-12-18T19:19:28.922Z,22.06
2022-12-18T19:25:44.492Z,20.47
2022-12-18T19:27:53.957Z,21.49
2022-12-18T19:30:29.199Z,21.25
2022-12-18T19:33:46.570Z,20.65
2022-12-18T19:35:51.146Z,21.30
2022-12-18T19:38:34.315Z,19.59
2022-12-18T19:41:06.532Z,20.19
2022-12-18T19:43:34.583Z,20.78
2022-12-18T19:46:02.743Z,20.26
2022-12-18T19:48:33.434Z,20.25
2022-12-18T19:51:13.162Z,19.97
2022-12-18T20:16:08.200Z,20.10
2022-12-18T20:21:24.868Z,19.78
2022-12-18T20:23:54.778Z,20.53
2022-12-18T20:26:33.022Z,21.59
2022-12-18T20:29:04.181Z,21.24
2022-12-18T20:31:33.885Z,20.37
2022-12-18T20:34:05.020Z,21.31
2022-12-18T20:36:37.591Z,22.13
2022-12-18T20:39:08.933Z,23.35
2022-12-18T20:41:39.089Z,24.27
2022-12-18T20:44:21.694Z,24.42
2022-12-18T20:47:18.091Z,24.52
2022-12-18T20:49:58.577Z,24.74
2022-12-18T20:52:26.476Z,25.75
2022-12-18T20:55:02.745Z,25.03
2022-12-18T20:57:31.944Z,25.96
2022-12-18T21:00:10.372Z,26.83
2022-12-18T21:02:43.084Z,25.66
2022-12-18T21:05:18.651Z,25.26
2022-12-18T21:07:46.427Z,26.52
2022-12-18T21:10:16.504Z,27.01
2022-12-18T21:13:01.631Z,24.70
2022-12-18T21:15:33.380Z,25.07
2022-12-18T21:18:02.288Z,25.33
2022-12-18T21:20:50.617Z,25.07
2022-12-18T21:23:18.999Z,26.78
2022-12-18T21:25:54.740Z,25.76
2022-12-18T21:28:35.778Z,24.78
2022-12-18T21:31:04.982Z,24.36
2022-12-18T21:33:33.897Z,25.91
2022-12-18T21:36:05.457Z,25.69
2022-12-18T21:38:44.176Z,25.41
2022-12-18T21:41:17.237Z,66.68
2022-12-18T21:43:46.412Z,30.43
2022-12-18T21:46:15.659Z,23.22
2022-12-18T21:48:44.851Z,23.49
2022-12-18T21:51:14.040Z,25.05
2022-12-18T21:53:48.620Z,24.33
2022-12-18T21:56:17.531Z,24.36
2022-12-18T21:58:55.623Z,25.72
2022-12-18T22:01:31.505Z,25.48
2022-12-18T22:04:05.972Z,23.92
2022-12-18T22:06:35.836Z,25.50
2022-12-18T22:09:04.499Z,25.10
2022-12-18T22:11:35.337Z,24.55
2022-12-18T22:14:04.606Z,23.19
2022-12-18T22:16:33.664Z,26.10
2022-12-18T22:19:07.568Z,26.34
2022-12-18T22:21:40.052Z,23.83
2022-12-18T22:24:12.684Z,24.06
2022-12-18T22:26:41.106Z,23.96
2022-12-18T22:29:15.427Z,24.73
2022-12-18T22:31:43.731Z,24.42
2022-12-18T22:34:13.414Z,24.80
2022-12-18T22:36:45.272Z,25.11
2022-12-18T22:39:15.556Z,25.51
2022-12-18T22:41:45.131Z,25.69
2022-12-18T22:44:15.029Z,24.82
2022-12-18T22:46:50.758Z,26.93
2022-12-18T22:49:35.104Z,26.89
2022-12-18T22:52:07.110Z,26.16
2022-12-18T22:54:37.226Z,26.55
2022-12-18T22:57:06.616Z,27.67
2022-12-18T22:59:58.463Z,28.22
2022-12-18T23:02:25.139Z,30.70
2022-12-18T23:04:57.192Z,28.45
2022-12-18T23:07:26.690Z,28.44
2022-12-18T23:10:00.628Z,27.59
2022-12-18T23:12:35.238Z,32.46
2022-12-18T23:15:07.448Z,32.17
2022-12-18T23:17:45.578Z,28.02
2022-12-18T23:20:14.880Z,28.15
2022-12-18T23:22:45.462Z,29.75
2022-12-18T23:25:15.234Z,29.28
2022-12-18T23:27:45.500Z,27.20
2022-12-18T23:30:15.290Z,31.04
2022-12-18T23:32:51.232Z,26.93
2022-12-18T23:35:19.433Z,25.85
2022-12-18T23:38:04.475Z,27.59
2022-12-18T23:40:40.711Z,26.30
2022-12-18T23:43:09.650Z,24.31
2022-12-18T23:45:39.652Z,24.94
2022-12-18T23:48:07.381Z,24.44
2022-12-18T23:50:36.819Z,25.51
2022-12-18T23:53:07.748Z,25.82
2022-12-18T23:55:49.401Z,25.23
2022-12-18T23:58:21.338Z,25.75
